createdAt,value
2022-08-28T00:06:07.884Z,43.20
2022-08-28T00:12:58.229Z,43.22
2022-08-28T00:19:43.747Z,43.22
2022-08-28T00:26:41.896Z,43.62
2022-08-28T00:33:35.273Z,43.39
2022-08-28T00:40:28.480Z,43.87
2022-08-28T00:47:16.720Z,43.87
2022-08-28T00:54:07.693Z,44.13
2022-08-28T01:00:53.731Z,43.76
2022-08-28T01:07:40.267Z,43.65
2022-08-28T01:14:29.811Z,43.97
2022-08-28T01:21:24.983Z,44.09
2022-08-28T01:28:16.788Z,44.26
2022-08-28T01:35:03.145Z,44.13
2022-08-28T01:41:54.663Z,43.85
2022-08-28T01:48:46.088Z,43.98
2022-08-28T01:55:32.449Z,44.21
2022-08-28T02:02:17.985Z,44.04
2022-08-28T02:09:06.718Z,44.10
2022-08-28T02:15:59.184Z,44.24
2022-08-28T02:22:45.212Z,43.88
2022-08-28T02:29:33.279Z,43.99
2022-08-28T02:36:19.572Z,44.13
2022-08-28T02:43:06.069Z,43.96
2022-08-28T03:03:43.517Z,44.05
2022-08-28T03:10:29.021Z,44.20
2022-08-28T03:17:14.494Z,43.67
2022-08-28T03:24:02.668Z,44.20
2022-08-28T03:30:49.809Z,44.06
2022-08-28T03:37:35.774Z,44.50
2022-08-28T03:44:23.945Z,44.65
2022-08-28T03:51:12.227Z,44.27
2022-08-28T03:57:58.056Z,44.48
2022-08-28T04:04:46.187Z,44.95
2022-08-28T04:11:32.341Z,44.44
2022-08-28T04:18:18.402Z,44.36
2022-08-28T04:25:07.383Z,44.78
2022-08-28T04:31:53.326Z,44.77
2022-08-28T04:38:43.731Z,44.56
2022-08-28T04:45:32.295Z,44.83
2022-08-28T04:52:17.819Z,45.34
2022-08-28T04:59:04.775Z,45.46
2022-08-28T05:05:55.831Z,45.23
2022-08-28T05:12:41.292Z,45.35
2022-08-28T05:19:28.614Z,45.25
2022-08-28T05:26:19.901Z,45.56
2022-08-28T05:33:05.682Z,44.93
2022-08-28T05:39:51.141Z,45.44
2022-08-28T05:46:42.143Z,45.40
2022-08-28T05:53:28.361Z,45.38
2022-08-28T06:00:15.454Z,45.67
2022-08-28T06:07:04.256Z,45.10
2022-08-28T06:13:49.864Z,45.04
2022-08-28T06:20:41.464Z,45.36
2022-08-28T06:27:31.202Z,45.56
2022-08-28T06:34:16.779Z,45.12
2022-08-28T06:41:02.685Z,44.94
2022-08-28T06:47:50.987Z,44.61
2022-08-28T06:54:39.000Z,45.12
2022-08-28T07:01:29.951Z,45.46
2022-08-28T07:08:18.159Z,45.25
2022-08-28T07:15:04.301Z,45.04
2022-08-28T07:21:49.899Z,44.88
2022-08-28T07:28:38.899Z,44.92
2022-08-28T07:35:25.460Z,45.23
2022-08-28T07:42:35.448Z,44.65
2022-08-28T07:49:24.493Z,44.95
2022-08-28T07:56:11.407Z,44.63
2022-08-28T08:02:57.329Z,44.41
2022-08-28T08:09:46.820Z,44.06
2022-08-28T08:16:33.532Z,43.53
2022-08-28T08:23:18.962Z,43.46
2022-08-28T08:30:08.213Z,43.48
2022-08-28T08:36:54.263Z,43.23
2022-08-28T08:43:58.845Z,42.88
2022-08-28T08:50:46.941Z,42.12
2022-08-28T08:57:34.392Z,41.83
2022-08-28T09:04:39.852Z,41.86
2022-08-28T09:11:44.229Z,41.70
2022-08-28T09:18:35.848Z,41.48
2022-08-28T09:25:59.719Z,40.86
2022-08-28T09:33:02.774Z,40.47
2022-08-28T09:39:49.004Z,40.46
2022-08-28T09:46:39.167Z,40.34
2022-08-28T09:53:29.195Z,39.63
2022-08-28T10:00:16.228Z,39.07
2022-08-28T10:07:09.428Z,39.05
2022-08-28T10:14:13.172Z,38.52
2022-08-28T10:21:07.965Z,37.88
2022-08-28T10:28:25.460Z,38.00
2022-08-28T10:35:21.329Z,37.44
2022-08-28T10:42:10.437Z,37.16
2022-08-28T10:49:03.149Z,36.80
2022-08-28T10:56:02.743Z,36.14
2022-08-28T11:02:54.071Z,35.99
2022-08-28T11:09:41.923Z,35.56
2022-08-28T11:16:42.034Z,35.49
2022-08-28T11:23:45.927Z,35.09
2022-08-28T11:30:36.695Z,34.67
2022-08-28T11:37:44.452Z,34.45
2022-08-28T11:44:43.257Z,33.73
2022-08-28T11:52:03.144Z,33.73
2022-08-28T11:59:02.302Z,33.21
2022-08-28T12:05:58.582Z,33.14
2022-08-28T12:12:57.083Z,33.04
2022-08-28T12:19:55.215Z,32.60
2022-08-28T12:26:48.726Z,32.48
2022-08-28T12:33:41.561Z,32.30
2022-08-28T12:40:35.074Z,32.11
2022-08-28T12:47:25.773Z,31.71
2022-08-28T12:54:12.273Z,32.25
2022-08-28T13:01:04.041Z,31.63
2022-08-28T13:07:54.492Z,31.40
2022-08-28T13:14:46.312Z,31.40
2022-08-28T13:21:38.581Z,31.26
2022-08-28T13:28:24.645Z,30.72
2022-08-28T13:35:38.805Z,30.80
2022-08-28T13:42:26.865Z,30.53
2022-08-28T13:49:12.352Z,30.38
2022-08-28T13:56:00.126Z,30.12
2022-08-28T14:03:02.036Z,30.06
2022-08-28T14:09:47.560Z,29.80
2022-08-28T14:16:35.457Z,30.22
2022-08-28T14:23:27.292Z,29.94
2022-08-28T14:30:14.404Z,29.83
2022-08-28T14:37:02.060Z,29.92
2022-08-28T14:43:50.833Z,29.37
2022-08-28T14:50:36.361Z,29.34
2022-08-28T14:57:22.248Z,29.07
2022-08-28T15:04:14.047Z,29.31
2022-08-28T15:10:59.715Z,29.16
2022-08-28T15:17:45.213Z,28.88
2022-08-28T15:24:36.072Z,28.79
2022-08-28T15:31:22.595Z,28.75
2022-08-28T15:38:09.869Z,28.42
2022-08-28T15:44:57.956Z,28.38
2022-08-28T15:51:44.272Z,28.26
2022-08-28T15:58:31.385Z,27.94
2022-08-28T16:05:19.998Z,27.84
2022-08-28T16:12:08.007Z,27.29
2022-08-28T16:18:53.506Z,27.26
2022-08-28T16:25:42.175Z,27.17
2022-08-28T16:32:27.746Z,27.10
2022-08-28T16:39:13.276Z,27.11
2022-08-28T16:46:02.080Z,26.86
2022-08-28T16:52:47.668Z,26.58
2022-08-28T16:59:33.386Z,26.52
2022-08-28T17:06:28.890Z,26.39
2022-08-28T17:13:14.720Z,26.37
2022-08-28T17:20:00.540Z,26.28
2022-08-28T17:26:51.091Z,26.42
2022-08-28T17:33:36.636Z,26.56
2022-08-28T17:40:22.759Z,26.32
2022-08-28T17:47:11.984Z,26.16
2022-08-28T17:53:58.102Z,26.18
2022-08-28T18:00:44.473Z,26.51
2022-08-28T18:07:32.490Z,26.44
2022-08-28T18:14:18.270Z,26.47
2022-08-28T18:21:04.771Z,26.42
2022-08-28T18:27:53.377Z,26.46
2022-08-28T18:34:39.167Z,26.19
2022-08-28T18:41:32.636Z,26.44
2022-08-28T18:48:33.619Z,26.42
2022-08-28T18:55:19.146Z,27.03
2022-08-28T19:02:05.459Z,27.03
2022-08-28T19:08:53.746Z,27.51
2022-08-28T19:15:40.298Z,27.16
2022-08-28T19:22:26.656Z,27.08
2022-08-28T19:29:19.107Z,27.14
2022-08-28T19:36:05.287Z,27.26
2022-08-28T19:42:51.373Z,27.39
2022-08-28T19:49:39.400Z,27.58
2022-08-28T19:56:27.082Z,27.84
2022-08-28T20:03:13.536Z,27.73
2022-08-28T20:10:02.409Z,27.71
2022-08-28T20:16:51.300Z,27.65
2022-08-28T20:23:36.981Z,27.95
2022-08-28T20:30:25.496Z,27.58
2022-08-28T20:37:11.514Z,27.96
2022-08-28T20:43:57.164Z,28.21
2022-08-28T20:50:45.328Z,28.12
2022-08-28T20:57:30.823Z,28.26
2022-08-28T21:04:16.408Z,28.02
2022-08-28T21:11:05.562Z,28.29
2022-08-28T21:17:51.055Z,28.35
2022-08-28T21:24:36.636Z,28.65
2022-08-28T21:31:24.589Z,27.98
2022-08-28T21:38:10.448Z,28.43
2022-08-28T21:44:59.621Z,28.85
2022-08-28T21:51:47.829Z,28.92
2022-08-28T21:58:33.757Z,29.09
2022-08-28T22:05:21.410Z,29.09
2022-08-28T22:12:10.885Z,29.39
2022-08-28T22:18:56.878Z,29.14
2022-08-28T22:25:44.847Z,29.58
2022-08-28T22:32:33.427Z,29.77
2022-08-28T22:39:18.952Z,29.75
2022-08-28T22:46:04.788Z,29.87
2022-08-28T22:52:53.488Z,29.79
2022-08-28T22:59:39.066Z,30.31
2022-08-28T23:06:24.580Z,30.75
2022-08-28T23:13:14.318Z,30.57
2022-08-28T23:20:00.452Z,31.20
2022-08-28T23:26:48.940Z,31.08
2022-08-28T23:33:37.096Z,31.18
2022-08-28T23:40:25.846Z,31.74
2022-08-28T23:47:14.181Z,31.24
2022-08-28T23:54:02.428Z,31.38
